createdAt,value
2023-01-29T00:00:23.281Z,2.50
2023-01-29T00:02:51.328Z,2.50
2023-01-29T00:05:27.937Z,2.50
2023-01-29T00:07:56.865Z,2.50
2023-01-29T00:10:25.256Z,2.50
2023-01-29T00:12:53.314Z,2.50
2023-01-29T00:15:23.054Z,2.50
2023-01-29T00:17:51.072Z,2.50
2023-01-29T00:20:22.806Z,2.50
2023-01-29T00:22:50.837Z,2.50
2023-01-29T00:25:20.977Z,2.50
2023-01-29T00:27:48.964Z,2.40
2023-01-29T00:30:19.607Z,2.50
2023-01-29T00:32:48.065Z,2.50
2023-01-29T00:35:16.052Z,2.50
2023-01-29T00:37:45.450Z,2.50
2023-01-29T00:40:13.796Z,2.40
2023-01-29T00:42:58.955Z,2.40
2023-01-29T00:45:26.900Z,2.50
2023-01-29T00:47:57.521Z,2.50
2023-01-29T00:50:25.483Z,2.50
2023-01-29T00:53:00.596Z,2.50
2023-01-29T00:55:28.545Z,2.40
2023-01-29T00:57:56.564Z,2.40
2023-01-29T01:00:30.971Z,2.50
2023-01-29T01:03:07.005Z,2.40
2023-01-29T01:05:35.145Z,2.50
2023-01-29T01:08:24.646Z,2.50
2023-01-29T01:10:58.373Z,2.40
2023-01-29T01:13:26.486Z,2.40
2023-01-29T01:15:54.470Z,2.40
2023-01-29T01:18:22.912Z,2.40
2023-01-29T01:21:04.801Z,2.40
2023-01-29T01:23:34.360Z,2.40
2023-01-29T01:26:02.368Z,2.40
2023-01-29T01:28:30.427Z,2.40
2023-01-29T01:30:58.440Z,2.40
2023-01-29T01:33:26.437Z,2.40
2023-01-29T01:35:54.457Z,2.40
2023-01-29T01:38:23.866Z,2.40
2023-01-29T01:40:53.168Z,2.30
2023-01-29T01:43:21.332Z,2.30
2023-01-29T01:45:51.264Z,2.30
2023-01-29T01:48:22.037Z,2.30
2023-01-29T01:50:54.744Z,2.30
2023-01-29T01:53:32.510Z,2.30
2023-01-29T01:56:03.168Z,2.30
2023-01-29T01:58:32.997Z,2.30
2023-01-29T02:01:01.701Z,2.20
2023-01-29T02:03:53.776Z,2.20
2023-01-29T02:06:39.073Z,2.30
2023-01-29T02:09:26.988Z,2.20
2023-01-29T02:11:56.510Z,2.20
2023-01-29T02:14:25.347Z,2.20
2023-01-29T02:16:53.393Z,2.20
2023-01-29T02:19:23.457Z,2.20
2023-01-29T02:22:05.447Z,2.20
2023-01-29T02:24:57.053Z,2.20
2023-01-29T02:27:28.223Z,2.20
2023-01-29T02:30:00.795Z,2.20
2023-01-29T02:32:31.020Z,2.20
2023-01-29T02:35:25.313Z,2.20
2023-01-29T02:38:00.647Z,2.20
2023-01-29T02:40:31.118Z,2.20
2023-01-29T02:43:03.324Z,2.20
2023-01-29T02:45:36.366Z,2.20
2023-01-29T02:48:04.523Z,2.20
2023-01-29T02:50:34.039Z,2.20
2023-01-29T02:53:05.500Z,2.20
2023-01-29T02:55:36.450Z,2.20
2023-01-29T02:58:06.550Z,2.20
2023-01-29T03:00:45.380Z,2.20
2023-01-29T03:03:15.379Z,2.20
2023-01-29T03:05:53.753Z,2.20
2023-01-29T03:08:24.155Z,2.20
2023-01-29T03:10:54.686Z,2.20
2023-01-29T03:13:26.979Z,2.20
2023-01-29T03:16:06.569Z,2.20
2023-01-29T03:18:40.601Z,2.20
2023-01-29T03:21:29.903Z,2.20
2023-01-29T03:24:16.006Z,2.20
2023-01-29T03:27:02.375Z,2.20
2023-01-29T03:29:49.070Z,2.30
2023-01-29T03:32:25.795Z,2.30
2023-01-29T03:34:56.139Z,2.30
2023-01-29T03:37:28.294Z,2.30
2023-01-29T03:39:56.556Z,2.30
2023-01-29T03:42:26.923Z,2.30
2023-01-29T03:45:00.348Z,2.30
2023-01-29T03:47:37.163Z,2.30
2023-01-29T03:50:08.230Z,2.40
2023-01-29T03:52:41.144Z,2.40
2023-01-29T03:55:13.693Z,2.40
2023-01-29T03:57:45.583Z,2.40
2023-01-29T04:00:18.081Z,2.50
2023-01-29T04:02:52.207Z,2.50
2023-01-29T04:05:21.244Z,2.50
2023-01-29T04:07:52.783Z,2.50
2023-01-29T04:10:22.445Z,2.50
2023-01-29T04:12:52.210Z,2.50
2023-01-29T04:15:21.500Z,2.60
2023-01-29T04:17:52.705Z,2.60
2023-01-29T04:20:21.049Z,2.60
2023-01-29T04:22:49.768Z,2.60
2023-01-29T04:25:20.522Z,2.60
2023-01-29T04:27:54.709Z,2.60
2023-01-29T04:30:30.790Z,2.70
2023-01-29T04:33:11.146Z,2.60
2023-01-29T04:35:46.809Z,2.70
2023-01-29T04:38:19.652Z,2.70
2023-01-29T04:40:51.797Z,2.70
2023-01-29T04:43:23.177Z,2.70
2023-01-29T04:45:55.286Z,2.70
2023-01-29T04:48:26.288Z,2.70
2023-01-29T04:50:57.672Z,2.60
2023-01-29T04:53:30.181Z,2.70
2023-01-29T04:56:01.042Z,2.70
2023-01-29T04:58:33.364Z,2.70
2023-01-29T05:01:05.773Z,2.70
2023-01-29T05:03:35.467Z,2.70
2023-01-29T05:06:03.663Z,2.70
2023-01-29T05:08:33.352Z,2.70
2023-01-29T05:11:02.040Z,2.70
2023-01-29T05:13:31.733Z,2.70
2023-01-29T05:16:04.334Z,2.70
2023-01-29T05:18:35.244Z,2.70
2023-01-29T05:21:07.184Z,2.70
2023-01-29T05:23:36.786Z,2.70
2023-01-29T05:26:07.242Z,2.70
2023-01-29T05:28:34.212Z,2.70
2023-01-29T05:31:02.503Z,2.70
2023-01-29T05:33:32.587Z,2.70
2023-01-29T05:36:00.920Z,2.70
2023-01-29T05:38:30.282Z,2.70
2023-01-29T05:40:59.451Z,2.70
2023-01-29T05:43:29.310Z,2.70
2023-01-29T05:45:58.128Z,2.70
2023-01-29T05:48:27.627Z,2.70
2023-01-29T05:50:55.742Z,2.70
2023-01-29T05:53:23.727Z,2.70
2023-01-29T05:55:54.981Z,2.70
2023-01-29T05:58:23.210Z,2.70
2023-01-29T06:00:51.226Z,2.70
2023-01-29T06:03:19.281Z,2.70
2023-01-29T06:05:48.657Z,2.70
2023-01-29T06:08:16.745Z,2.70
2023-01-29T06:10:47.138Z,2.70
2023-01-29T06:13:16.593Z,2.70
2023-01-29T06:15:44.540Z,2.70
2023-01-29T06:18:12.465Z,2.70
2023-01-29T06:20:42.967Z,2.70
2023-01-29T06:23:16.645Z,2.70
2023-01-29T06:25:45.881Z,2.70
2023-01-29T06:28:13.814Z,2.70
2023-01-29T06:30:45.990Z,2.70
2023-01-29T06:33:14.065Z,2.70
2023-01-29T06:35:43.207Z,2.70
2023-01-29T06:38:11.178Z,2.70
2023-01-29T06:40:39.511Z,2.70
2023-01-29T06:43:09.518Z,2.70
2023-01-29T06:45:37.517Z,2.70
2023-01-29T06:48:07.252Z,2.70
2023-01-29T06:50:35.211Z,2.70
2023-01-29T06:53:03.177Z,2.70
2023-01-29T06:55:36.546Z,2.70
2023-01-29T06:58:06.539Z,2.70
2023-01-29T07:00:36.070Z,2.70
2023-01-29T07:03:04.618Z,2.70
2023-01-29T07:05:38.017Z,2.70
2023-01-29T07:08:06.110Z,2.70
2023-01-29T07:10:39.750Z,2.70
2023-01-29T07:13:08.711Z,2.70
2023-01-29T07:15:37.314Z,2.70
2023-01-29T07:18:12.061Z,2.70
2023-01-29T07:20:41.808Z,2.70
2023-01-29T07:23:11.865Z,2.70
2023-01-29T07:25:42.665Z,2.70
2023-01-29T07:28:13.600Z,2.70
2023-01-29T07:30:41.567Z,2.70
2023-01-29T07:33:10.219Z,2.70
2023-01-29T07:35:38.974Z,2.70
2023-01-29T07:38:08.603Z,2.70
2023-01-29T07:40:36.600Z,2.70
2023-01-29T07:43:05.586Z,2.70
2023-01-29T07:45:34.858Z,2.70
2023-01-29T07:48:04.238Z,2.70
2023-01-29T07:50:32.919Z,2.70
2023-01-29T07:53:00.900Z,2.70
2023-01-29T07:55:30.245Z,2.70
2023-01-29T07:57:58.617Z,2.70
2023-01-29T08:00:26.627Z,2.70
2023-01-29T08:02:54.612Z,2.70
2023-01-29T08:05:22.572Z,2.70
2023-01-29T08:08:05.720Z,2.70
2023-01-29T08:10:37.703Z,2.70
2023-01-29T08:13:06.167Z,2.70
2023-01-29T08:15:36.558Z,2.70
2023-01-29T08:18:05.879Z,2.70
2023-01-29T08:20:33.918Z,2.70
2023-01-29T08:23:02.831Z,2.80
2023-01-29T08:25:31.422Z,2.80
2023-01-29T08:28:01.586Z,2.70
2023-01-29T08:30:30.932Z,2.80
2023-01-29T08:33:01.630Z,2.80
2023-01-29T08:35:29.636Z,2.80
2023-01-29T08:37:59.245Z,2.80
2023-01-29T08:40:27.712Z,2.80
2023-01-29T08:43:01.487Z,2.80
2023-01-29T08:45:31.612Z,2.90
2023-01-29T08:48:01.473Z,2.80
2023-01-29T08:50:30.634Z,2.80
2023-01-29T08:52:58.962Z,2.80
2023-01-29T08:55:27.017Z,2.80
2023-01-29T08:57:57.283Z,2.90
2023-01-29T09:00:25.604Z,2.90
2023-01-29T09:02:55.027Z,2.90
2023-01-29T09:05:22.985Z,2.90
2023-01-29T09:07:53.278Z,2.90
2023-01-29T09:10:21.315Z,2.90
2023-01-29T09:12:49.371Z,3.00
2023-01-29T09:15:17.834Z,2.90
2023-01-29T09:17:46.095Z,2.90
2023-01-29T09:20:15.455Z,3.00
2023-01-29T09:22:43.401Z,2.90
2023-01-29T09:25:11.872Z,3.00
2023-01-29T09:27:39.941Z,2.90
2023-01-29T09:30:08.443Z,2.90
2023-01-29T09:32:54.004Z,3.00
2023-01-29T09:35:24.298Z,3.00
2023-01-29T09:37:53.207Z,3.00
2023-01-29T09:40:25.761Z,3.00
2023-01-29T09:42:56.609Z,3.00
2023-01-29T09:45:25.680Z,3.00
2023-01-29T09:47:54.339Z,3.00
2023-01-29T09:50:25.796Z,3.10
2023-01-29T09:52:56.799Z,3.10
2023-01-29T09:55:27.189Z,3.10
2023-01-29T09:57:56.633Z,3.20
2023-01-29T10:00:26.743Z,3.20
2023-01-29T10:03:08.468Z,3.20
2023-01-29T10:05:45.766Z,3.30
2023-01-29T10:08:21.213Z,3.30
2023-01-29T10:10:51.375Z,3.40
2023-01-29T10:13:24.519Z,3.30
2023-01-29T10:16:00.577Z,3.40
2023-01-29T10:18:34.617Z,3.40
2023-01-29T10:21:09.996Z,3.40
2023-01-29T10:23:39.577Z,3.50
2023-01-29T10:26:13.112Z,3.50
2023-01-29T10:28:45.941Z,3.50
2023-01-29T10:31:16.519Z,3.50
2023-01-29T10:34:01.593Z,3.50
2023-01-29T10:36:36.301Z,3.60
2023-01-29T10:39:04.512Z,3.60
2023-01-29T10:41:44.218Z,3.60
2023-01-29T10:44:18.454Z,3.60
2023-01-29T10:46:58.565Z,3.60
2023-01-29T10:49:39.028Z,3.70
2023-01-29T10:52:12.881Z,3.70
2023-01-29T10:54:50.157Z,3.70
2023-01-29T10:57:21.696Z,3.70
2023-01-29T11:00:01.718Z,3.80
2023-01-29T11:02:29.916Z,3.80
2023-01-29T11:04:57.931Z,3.90
2023-01-29T11:07:28.345Z,3.90
2023-01-29T11:09:58.597Z,3.90
2023-01-29T11:12:30.445Z,4.00
2023-01-29T11:15:01.167Z,4.00
2023-01-29T11:17:29.153Z,4.00
2023-01-29T11:19:57.203Z,4.00
2023-01-29T11:22:26.197Z,4.00
2023-01-29T11:25:09.901Z,4.00
2023-01-29T11:27:43.909Z,4.00
2023-01-29T11:30:17.149Z,4.00
2023-01-29T11:32:45.456Z,4.00
2023-01-29T11:35:21.516Z,4.00
2023-01-29T11:37:49.666Z,4.00
2023-01-29T11:40:33.683Z,4.00
2023-01-29T11:43:13.347Z,4.00
2023-01-29T11:45:41.764Z,4.00
2023-01-29T11:48:15.004Z,4.00
2023-01-29T11:50:43.391Z,4.00
2023-01-29T11:53:23.467Z,4.00
2023-01-29T11:55:52.634Z,4.00
2023-01-29T11:58:27.349Z,4.00
2023-01-29T12:00:56.104Z,4.00
2023-01-29T12:03:29.601Z,4.10
2023-01-29T12:05:59.682Z,4.10
2023-01-29T12:08:36.513Z,4.10
2023-01-29T12:11:12.518Z,4.10
2023-01-29T12:13:44.392Z,4.10
2023-01-29T12:16:18.112Z,4.10
2023-01-29T12:18:49.635Z,4.10
2023-01-29T12:21:22.187Z,4.10
2023-01-29T12:23:55.819Z,4.20
2023-01-29T12:26:28.535Z,4.10
2023-01-29T12:29:08.250Z,4.10
2023-01-29T12:31:40.382Z,4.10
2023-01-29T12:34:12.595Z,4.10
2023-01-29T12:36:42.917Z,4.20
2023-01-29T12:39:11.850Z,4.20
2023-01-29T12:41:44.100Z,4.20
2023-01-29T12:44:17.132Z,4.20
2023-01-29T12:46:50.405Z,4.20
2023-01-29T12:49:20.255Z,4.20
2023-01-29T12:51:54.333Z,4.20
2023-01-29T12:54:27.544Z,4.20
2023-01-29T12:57:01.848Z,4.20
2023-01-29T12:59:32.643Z,4.20
2023-01-29T13:02:03.321Z,4.20
2023-01-29T13:04:35.063Z,4.20
2023-01-29T13:07:12.176Z,4.20
2023-01-29T13:09:42.896Z,4.20
2023-01-29T13:12:14.055Z,4.20
2023-01-29T13:14:46.130Z,4.20
2023-01-29T13:17:16.844Z,4.10
2023-01-29T13:19:46.551Z,4.10
2023-01-29T13:22:19.399Z,4.10
2023-01-29T13:24:58.701Z,4.10
2023-01-29T13:27:32.595Z,4.10
2023-01-29T13:30:02.514Z,4.10
2023-01-29T13:32:33.077Z,4.10
2023-01-29T13:35:02.305Z,4.10
2023-01-29T13:37:32.357Z,4.00
2023-01-29T13:40:01.548Z,4.00
2023-01-29T13:42:41.527Z,4.00
2023-01-29T13:45:20.458Z,4.00
2023-01-29T13:47:49.388Z,4.00
2023-01-29T13:50:21.467Z,3.90
2023-01-29T13:52:54.615Z,3.90
2023-01-29T13:55:26.189Z,3.90
2023-01-29T13:57:56.308Z,3.90
2023-01-29T14:00:51.724Z,3.90
2023-01-29T14:04:04.888Z,3.90
2023-01-29T14:06:40.586Z,3.90
2023-01-29T14:09:23.392Z,3.90
2023-01-29T14:11:51.375Z,3.90
2023-01-29T14:14:37.517Z,3.80
2023-01-29T14:17:05.536Z,3.80
2023-01-29T14:19:34.072Z,3.90
2023-01-29T14:22:06.651Z,3.90
2023-01-29T14:24:34.920Z,3.90
2023-01-29T14:27:04.902Z,3.90
2023-01-29T14:29:38.801Z,3.90
2023-01-29T14:32:14.083Z,3.90
2023-01-29T14:34:43.695Z,3.90
2023-01-29T14:37:21.447Z,3.90
2023-01-29T14:39:50.685Z,3.90
2023-01-29T14:42:23.761Z,4.00
2023-01-29T14:45:02.389Z,3.90
2023-01-29T14:47:45.281Z,3.90
2023-01-29T14:50:28.120Z,3.90
2023-01-29T14:53:00.975Z,3.90
2023-01-29T14:55:31.332Z,3.90
2023-01-29T14:57:59.699Z,3.90
2023-01-29T15:00:28.587Z,3.80
2023-01-29T15:03:02.044Z,3.80
2023-01-29T15:05:32.351Z,3.80
2023-01-29T15:08:04.520Z,3.80
2023-01-29T15:10:37.432Z,3.70
2023-01-29T15:13:09.289Z,3.70
2023-01-29T15:15:38.642Z,3.60
2023-01-29T15:18:09.386Z,3.60
2023-01-29T15:20:38.072Z,3.50
2023-01-29T15:23:24.717Z,3.50
2023-01-29T15:25:53.952Z,3.50
2023-01-29T15:28:25.077Z,3.50
2023-01-29T15:30:55.101Z,3.50
2023-01-29T15:33:23.290Z,3.40
2023-01-29T15:36:06.867Z,3.40
2023-01-29T15:38:36.989Z,3.40
2023-01-29T15:41:16.072Z,3.40
2023-01-29T15:43:45.007Z,3.30
2023-01-29T15:46:15.685Z,3.30
2023-01-29T15:48:44.631Z,3.30
2023-01-29T15:51:16.667Z,3.30
2023-01-29T15:53:49.635Z,3.30
2023-01-29T15:56:19.770Z,3.30
2023-01-29T15:58:49.271Z,3.20
2023-01-29T16:01:17.471Z,3.20
2023-01-29T16:03:46.075Z,3.20
2023-01-29T16:06:14.213Z,3.20
2023-01-29T16:08:49.782Z,3.20
2023-01-29T16:11:20.418Z,3.20
2023-01-29T16:13:50.073Z,3.20
2023-01-29T16:16:20.929Z,3.20
2023-01-29T16:18:59.850Z,3.20
2023-01-29T16:21:38.663Z,3.20
2023-01-29T16:24:09.832Z,3.10
2023-01-29T16:26:42.535Z,3.20
2023-01-29T16:29:15.360Z,3.20
2023-01-29T16:31:44.022Z,3.10
2023-01-29T16:34:17.068Z,3.10
2023-01-29T16:36:46.244Z,3.10
2023-01-29T16:39:18.365Z,3.10
2023-01-29T16:42:01.211Z,3.10
2023-01-29T16:44:32.898Z,3.10
2023-01-29T16:47:07.367Z,3.00
2023-01-29T16:49:44.510Z,3.00
2023-01-29T16:52:19.893Z,3.00
2023-01-29T16:54:47.908Z,2.90
2023-01-29T16:57:18.911Z,2.90
2023-01-29T16:59:46.968Z,2.90
2023-01-29T17:02:24.371Z,2.90
2023-01-29T17:05:02.954Z,2.90
2023-01-29T17:07:31.588Z,2.90
2023-01-29T17:10:00.835Z,2.80
2023-01-29T17:12:31.267Z,2.80
2023-01-29T17:15:00.024Z,2.80
2023-01-29T17:17:33.787Z,2.80
2023-01-29T17:20:10.502Z,2.80
2023-01-29T17:22:38.523Z,2.80
2023-01-29T17:25:07.058Z,2.80
2023-01-29T17:27:36.484Z,2.80
2023-01-29T17:30:04.803Z,2.80
2023-01-29T17:32:44.916Z,2.80
2023-01-29T17:35:17.019Z,2.80
2023-01-29T17:37:45.545Z,2.80
2023-01-29T17:40:19.437Z,2.80
2023-01-29T17:42:48.868Z,2.80
2023-01-29T17:45:17.265Z,2.80
2023-01-29T17:47:45.701Z,2.80
2023-01-29T17:50:18.340Z,2.80
2023-01-29T17:52:46.354Z,2.80
2023-01-29T17:55:14.802Z,2.80
2023-01-29T17:57:43.176Z,2.80
2023-01-29T18:00:17.667Z,2.80
2023-01-29T18:02:45.687Z,2.80
2023-01-29T18:05:14.147Z,2.70
2023-01-29T18:07:44.375Z,2.80
2023-01-29T18:10:14.071Z,2.70
2023-01-29T18:12:42.091Z,2.70
2023-01-29T18:15:11.047Z,2.80
2023-01-29T18:17:40.965Z,2.80
2023-01-29T18:20:16.646Z,2.70
2023-01-29T18:22:44.675Z,2.70
2023-01-29T18:25:13.129Z,2.70
2023-01-29T18:27:41.105Z,2.70
2023-01-29T18:30:10.660Z,2.80
2023-01-29T18:32:38.681Z,2.80
2023-01-29T18:35:09.000Z,2.80
2023-01-29T18:37:37.007Z,2.80
2023-01-29T18:40:05.804Z,2.80
2023-01-29T18:42:35.944Z,2.80
2023-01-29T18:45:04.685Z,2.80
2023-01-29T18:47:33.908Z,2.80
2023-01-29T18:50:02.119Z,2.80
2023-01-29T18:52:31.484Z,2.80
2023-01-29T18:54:59.510Z,2.80
2023-01-29T18:58:33.981Z,2.80
2023-01-29T19:00:15.759Z,2.80
2023-01-29T19:02:45.542Z,2.80
2023-01-29T19:05:13.585Z,2.80
2023-01-29T19:07:42.962Z,2.90
2023-01-29T19:10:12.686Z,2.80
2023-01-29T19:12:42.217Z,2.80
2023-01-29T19:15:11.315Z,2.90
2023-01-29T19:17:39.321Z,2.90
2023-01-29T19:20:12.947Z,2.90
2023-01-29T19:22:43.617Z,2.90
2023-01-29T19:25:13.121Z,2.90
2023-01-29T19:27:41.125Z,2.90
2023-01-29T19:30:10.818Z,3.00
2023-01-29T19:32:38.763Z,3.00
2023-01-29T19:35:07.210Z,3.00
2023-01-29T19:37:36.809Z,3.00
2023-01-29T19:40:05.135Z,3.00
2023-01-29T19:42:35.487Z,3.00
2023-01-29T19:45:03.772Z,3.00
2023-01-29T19:47:33.602Z,3.10
2023-01-29T19:50:01.682Z,3.10
2023-01-29T19:52:50.746Z,3.10
2023-01-29T19:55:20.665Z,3.10
2023-01-29T19:57:52.957Z,3.10
2023-01-29T20:00:21.526Z,3.20
2023-01-29T20:02:49.582Z,3.20
2023-01-29T20:05:18.496Z,3.10
2023-01-29T20:07:46.845Z,3.20
2023-01-29T20:10:17.323Z,3.20
2023-01-29T20:12:46.125Z,3.20
2023-01-29T20:15:15.674Z,3.20
2023-01-29T20:17:45.657Z,3.20
2023-01-29T20:20:13.851Z,3.30
2023-01-29T20:22:41.813Z,3.30
2023-01-29T20:25:10.283Z,3.30
2023-01-29T20:27:38.261Z,3.30
2023-01-29T20:30:06.794Z,3.30
2023-01-29T20:32:37.955Z,3.30
2023-01-29T20:35:06.340Z,3.30
2023-01-29T20:37:34.583Z,3.30
2023-01-29T20:40:02.566Z,3.30
2023-01-29T20:42:30.527Z,3.30
2023-01-29T20:44:58.516Z,3.30
2023-01-29T20:47:26.603Z,3.40
2023-01-29T20:49:56.006Z,3.40
2023-01-29T20:52:24.069Z,3.40
2023-01-29T20:54:52.263Z,3.40
2023-01-29T20:57:20.277Z,3.40
2023-01-29T20:59:50.135Z,3.50
2023-01-29T21:02:18.289Z,3.50
2023-01-29T21:04:47.547Z,3.50
2023-01-29T21:07:16.954Z,3.50
2023-01-29T21:09:44.969Z,3.50
2023-01-29T21:12:13.023Z,3.50
2023-01-29T21:14:41.095Z,3.50
2023-01-29T21:17:09.269Z,3.60
2023-01-29T21:19:37.233Z,3.60
2023-01-29T21:22:05.202Z,3.60
2023-01-29T21:24:34.608Z,3.60
2023-01-29T21:27:02.615Z,3.60
2023-01-29T21:29:30.621Z,3.60
2023-01-29T21:31:58.692Z,3.70
2023-01-29T21:34:26.848Z,3.70
2023-01-29T21:36:54.803Z,3.70
2023-01-29T21:39:24.740Z,3.70
2023-01-29T21:42:11.772Z,3.70
2023-01-29T21:44:39.830Z,3.70
2023-01-29T21:47:12.329Z,3.70
2023-01-29T21:49:41.553Z,3.70
2023-01-29T21:52:09.877Z,3.80
2023-01-29T21:54:39.850Z,3.80
2023-01-29T21:57:14.881Z,3.80
2023-01-29T21:59:43.235Z,3.80
2023-01-29T22:02:15.659Z,3.80
2023-01-29T22:04:44.039Z,3.70
2023-01-29T22:07:12.473Z,3.80
2023-01-29T22:09:40.583Z,3.70
2023-01-29T22:12:09.075Z,3.70
2023-01-29T22:14:38.531Z,3.70
2023-01-29T22:17:06.583Z,3.70
2023-01-29T22:19:34.558Z,3.60
2023-01-29T22:22:07.829Z,3.70
2023-01-29T22:24:38.692Z,3.60
2023-01-29T22:27:06.743Z,3.60
2023-01-29T22:29:34.778Z,3.60
2023-01-29T22:32:04.328Z,3.60
2023-01-29T22:34:35.250Z,3.60
2023-01-29T22:37:03.262Z,3.60
2023-01-29T22:39:31.260Z,3.60
2023-01-29T22:41:59.238Z,3.60
2023-01-29T22:44:27.268Z,3.60
2023-01-29T22:46:57.154Z,3.60
2023-01-29T22:49:29.410Z,3.60
2023-01-29T22:52:10.889Z,3.70
2023-01-29T22:54:39.447Z,3.70
2023-01-29T22:57:07.695Z,3.70
2023-01-29T22:59:35.665Z,3.70
2023-01-29T23:02:03.643Z,3.60
2023-01-29T23:04:32.994Z,3.70
2023-01-29T23:07:00.983Z,3.70
2023-01-29T23:09:29.129Z,3.70
2023-01-29T23:11:57.193Z,3.70
2023-01-29T23:14:25.192Z,3.80
2023-01-29T23:16:53.174Z,3.80
2023-01-29T23:19:21.319Z,3.80
2023-01-29T23:21:50.681Z,3.80
2023-01-29T23:24:18.666Z,3.80
2023-01-29T23:27:04.314Z,3.90
2023-01-29T23:29:33.518Z,3.90
2023-01-29T23:32:01.493Z,3.90
2023-01-29T23:34:29.498Z,3.90
2023-01-29T23:36:59.174Z,4.00
2023-01-29T23:39:27.151Z,4.00
2023-01-29T23:41:55.145Z,4.00
2023-01-29T23:44:23.143Z,4.00
2023-01-29T23:46:51.173Z,4.10
2023-01-29T23:49:19.482Z,4.10
2023-01-29T23:51:48.198Z,4.10
2023-01-29T23:54:17.772Z,4.10
2023-01-29T23:56:45.818Z,4.20
2023-01-29T23:59:14.143Z,4.20
